Time;durP1;ratioP1;P1;durP2;ratioP2;P2;SDS_P1;SDS_P2;PMS_P1;PMS_P2;Temp;Humidity;BMP_temperature;BMP_pressure;BME280_temperature;BME280_humidity;BME280_pressure;Samples;Min_cycle;Max_cycle;Signal;HPM_P1;HPM_P2
2022/03/29 00:00:41;;;;;;;;;;;;;;;18.20;37.31;101117.16;5017261;28;1031;-53
2022/03/29 00:03:07;;;;;;;;;;;;;;;18.06;37.41;101103.13;5016596;28;866;-56
2022/03/29 00:05:33;;;;;;;;;;;;;;;18.01;37.03;101106.72;5000362;28;1160;-56
2022/03/29 00:08:00;;;;;;;;;;;;;;;17.81;37.53;101110.25;4998450;28;1980;-57
2022/03/29 00:10:25;;;;;;;;;;;;;;;17.71;37.86;101096.47;5004699;28;744;-56
2022/03/29 00:12:53;;;;;;;;;;;;;;;17.99;38.37;101092.38;5017445;28;830;-56
2022/03/29 00:15:19;;;;;;;;;;;;;;;18.39;37.35;101087.94;4992163;28;910;-56
2022/03/29 00:21:10;;;;;;;;;;;;;;;18.71;36.70;101067.50;4998422;28;722;-56
2022/03/29 00:23:36;;;;;;;;;;;;;;;18.56;37.03;101068.34;4998361;28;870;-56
2022/03/29 00:26:02;;;;;;;;;;;;;;;18.67;36.89;101065.59;5017041;28;801;-56
2022/03/29 00:28:28;;;;;;;;;;;;;;;18.78;36.44;101065.25;5017576;28;1902;-57
2022/03/29 00:30:53;;;;;;;;;;;;;;;18.58;37.03;101054.31;4999194;28;1080;-56
2022/03/29 00:33:19;;;;;;;;;;;;;;;18.55;37.13;101043.84;5017081;28;815;-56
2022/03/29 00:35:44;;;;;;;;;;;;;;;18.67;36.78;101049.88;5004557;28;938;-56
2022/03/29 00:38:10;;;;;;;;;;;;;;;18.60;37.03;101046.59;4997532;28;991;-56
2022/03/29 00:40:35;;;;;;;;;;;;;;;18.59;37.10;101045.78;4997606;28;845;-56
2022/03/29 00:43:00;;;;;;;;;;;;;;;18.59;36.74;101033.94;4997860;28;917;-56
2022/03/29 00:45:26;;;;;;;;;;;;;;;18.50;37.18;101032.88;4997718;28;842;-56
2022/03/29 00:47:51;;;;;;;;;;;;;;;18.51;37.02;101035.34;4997306;28;1977;-56
2022/03/29 00:50:18;;;;;;;;;;;;;;;18.60;36.56;101030.06;4997928;28;759;-57
2022/03/29 00:52:43;;;;;;;;;;;;;;;18.63;36.63;101024.00;4997537;28;1021;-56
2022/03/29 00:55:11;;;;;;;;;;;;;;;18.60;36.96;101024.56;5006876;28;874;-54
2022/03/29 00:57:36;;;;;;;;;;;;;;;18.56;37.02;101012.47;5016704;28;1477;-55
2022/03/29 01:00:03;;;;;;;;;;;;;;;18.60;36.71;101008.03;4995417;28;976;-55
2022/03/29 01:02:28;;;;;;;;;;;;;;;18.68;36.63;101007.47;4997551;28;798;-56
2022/03/29 01:04:54;;;;;;;;;;;;;;;18.48;37.21;101011.09;4997693;28;1007;-55
2022/03/29 01:07:19;;;;;;;;;;;;;;;18.60;36.87;101002.53;4997226;28;841;-56
2022/03/29 01:09:45;;;;;;;;;;;;;;;18.59;37.05;101000.88;4997498;28;1976;-55
2022/03/29 01:12:10;;;;;;;;;;;;;;;18.58;36.81;100997.31;4997681;28;875;-55
2022/03/29 01:14:37;;;;;;;;;;;;;;;18.66;37.03;100997.81;4993001;28;866;-55
2022/03/29 01:19:47;;;;;;;;;;;;;;;18.54;37.16;100987.97;5001286;28;795;-55
2022/03/29 01:22:12;;;;;;;;;;;;;;;18.57;36.84;100981.06;4998537;28;846;-55
2022/03/29 01:24:42;;;;;;;;;;;;;;;18.73;36.61;100977.16;5006700;28;792;-55
2022/03/29 01:27:08;;;;;;;;;;;;;;;18.68;36.69;100974.41;5006705;28;774;-56
2022/03/29 01:29:34;;;;;;;;;;;;;;;18.58;36.95;100972.53;5015731;28;1906;-55
2022/03/29 01:32:01;;;;;;;;;;;;;;;18.70;36.88;100960.34;5016484;28;869;-55
2022/03/29 01:34:27;;;;;;;;;;;;;;;18.67;36.64;100958.16;5016072;28;858;-55
2022/03/29 01:36:52;;;;;;;;;;;;;;;18.69;36.90;100956.78;4997416;28;847;-56
2022/03/29 01:39:18;;;;;;;;;;;;;;;18.74;36.60;100955.94;5006221;28;1105;-54
2022/03/29 01:41:43;;;;;;;;;;;;;;;18.67;36.82;100947.97;4997264;28;873;-56
2022/03/29 01:44:09;;;;;;;;;;;;;;;18.63;36.90;100947.72;4996735;28;739;-55
2022/03/29 01:46:34;;;;;;;;;;;;;;;18.66;36.93;100945.50;4996737;28;957;-56
2022/03/29 01:49:00;;;;;;;;;;;;;;;18.74;36.76;100942.97;4995500;28;1975;-56
2022/03/29 01:51:25;;;;;;;;;;;;;;;18.79;36.28;100934.69;4996707;28;768;-56
2022/03/29 01:53:54;;;;;;;;;;;;;;;18.74;36.45;100934.69;4996873;28;821;-56
2022/03/29 01:56:20;;;;;;;;;;;;;;;18.78;36.76;100926.69;4996979;28;783;-55
2022/03/29 01:58:45;;;;;;;;;;;;;;;18.71;36.53;100932.53;4996853;28;819;-56
2022/03/29 02:01:11;;;;;;;;;;;;;;;18.75;36.58;100928.09;4996521;28;1155;-56
2022/03/29 02:03:36;;;;;;;;;;;;;;;18.68;36.90;100926.75;4996739;28;1042;-56
2022/03/29 02:06:01;;;;;;;;;;;;;;;18.83;36.57;100923.09;5015540;28;787;-55
2022/03/29 02:08:27;;;;;;;;;;;;;;;18.83;36.41;100923.09;5015409;28;1969;-55
2022/03/29 02:10:52;;;;;;;;;;;;;;;18.80;36.52;100919.81;4996484;28;798;-55
2022/03/29 02:13:18;;;;;;;;;;;;;;;18.79;36.48;100915.41;4996424;28;783;-55
2022/03/29 02:15:43;;;;;;;;;;;;;;;18.70;36.78;100924.53;4979940;28;855;-55
2022/03/29 02:18:09;;;;;;;;;;;;;;;18.84;36.34;100921.97;5006907;28;834;-55
2022/03/29 02:20:34;;;;;;;;;;;;;;;18.84;36.60;100903.50;5015389;28;814;-56
2022/03/29 02:23:00;;;;;;;;;;;;;;;18.78;36.56;100907.41;5015733;28;837;-55
2022/03/29 02:25:26;;;;;;;;;;;;;;;18.90;36.33;100909.84;5010094;28;865;-56
2022/03/29 02:27:51;;;;;;;;;;;;;;;18.92;36.46;100915.91;5012567;28;1906;-57
2022/03/29 02:30:17;;;;;;;;;;;;;;;18.88;36.26;100903.81;5017398;28;780;-56
2022/03/29 02:32:42;;;;;;;;;;;;;;;18.90;36.26;100893.31;5019209;28;1470;-57
2022/03/29 02:35:08;;;;;;;;;;;;;;;18.82;36.64;100894.72;5019398;28;787;-56
2022/03/29 02:37:33;;;;;;;;;;;;;;;18.89;36.28;100899.94;5018916;28;1198;-57
2022/03/29 02:39:59;;;;;;;;;;;;;;;18.90;36.51;100887.78;5014993;28;825;-56
2022/03/29 02:42:24;;;;;;;;;;;;;;;18.80;36.70;100888.66;5013697;28;869;-56
2022/03/29 02:44:50;;;;;;;;;;;;;;;18.75;36.71;100884.00;5019294;28;779;-55
2022/03/29 02:47:15;;;;;;;;;;;;;;;18.85;36.41;100882.31;5018682;28;882;-55
2022/03/29 02:49:41;;;;;;;;;;;;;;;18.86;36.33;100905.97;5019429;28;1914;-56
2022/03/29 02:52:06;;;;;;;;;;;;;;;18.85;36.42;100894.13;5001001;28;815;-55
2022/03/29 02:54:32;;;;;;;;;;;;;;;18.88;36.49;100887.28;5014999;28;910;-55
2022/03/29 02:56:57;;;;;;;;;;;;;;;18.86;36.34;100883.94;5013828;28;1424;-55
2022/03/29 02:59:23;;;;;;;;;;;;;;;18.86;36.60;100889.44;4996039;28;801;-56
2022/03/29 03:01:48;;;;;;;;;;;;;;;18.88;36.56;100887.28;4998349;28;1238;-57
2022/03/29 03:04:14;;;;;;;;;;;;;;;18.89;36.33;100875.16;4997131;28;1015;-57
2022/03/29 03:06:43;;;;;;;;;;;;;;;18.87;36.42;100880.06;5010923;28;758;-57
2022/03/29 03:09:08;;;;;;;;;;;;;;;18.81;36.71;100877.34;5007947;28;1914;-57
2022/03/29 03:11:35;;;;;;;;;;;;;;;18.99;36.16;100866.78;4999759;28;872;-57
2022/03/29 03:14:00;;;;;;;;;;;;;;;18.77;36.50;100881.78;4999116;28;857;-57
2022/03/29 03:16:26;;;;;;;;;;;;;;;18.89;36.35;100866.88;5004305;28;819;-58
2022/03/29 03:18:51;;;;;;;;;;;;;;;18.90;36.53;100877.63;5018160;28;791;-57
2022/03/29 03:21:16;;;;;;;;;;;;;;;18.88;36.34;100867.97;5006521;28;779;-58
2022/03/29 03:23:42;;;;;;;;;;;;;;;18.69;37.04;100871.41;4999632;28;960;-58
2022/03/29 03:26:07;;;;;;;;;;;;;;;18.45;37.33;100863.81;4999692;28;809;-57
2022/03/29 03:28:33;;;;;;;;;;;;;;;18.61;36.85;100861.78;4999034;28;1906;-57
2022/03/29 03:30:59;;;;;;;;;;;;;;;18.35;37.61;100868.56;4999383;28;862;-57
2022/03/29 03:33:24;;;;;;;;;;;;;;;18.26;37.54;100866.41;5001752;28;837;-56
2022/03/29 03:35:50;;;;;;;;;;;;;;;18.32;37.39;100861.69;5017705;28;780;-56
2022/03/29 03:38:15;;;;;;;;;;;;;;;18.09;37.98;100857.66;5016666;28;1024;-56
2022/03/29 03:40:41;;;;;;;;;;;;;;;18.03;38.05;100853.28;5000215;28;983;-56
2022/03/29 03:43:06;;;;;;;;;;;;;;;18.01;38.01;100861.00;4998803;28;823;-57
2022/03/29 03:45:32;;;;;;;;;;;;;;;18.03;38.04;100850.53;4999853;28;815;-57
2022/03/29 03:47:57;;;;;;;;;;;;;;;17.86;38.49;100853.59;5017782;28;1981;-55
2022/03/29 03:50:23;;;;;;;;;;;;;;;18.06;38.13;100856.31;5017430;28;885;-57
2022/03/29 03:52:49;;;;;;;;;;;;;;;18.16;37.76;100860.09;5011398;28;1463;-56
2022/03/29 03:55:15;;;;;;;;;;;;;;;18.19;37.74;100862.28;5002341;28;1346;-55
2022/03/29 03:57:40;;;;;;;;;;;;;;;18.35;37.57;100868.56;4991827;28;1417;-54
2022/03/29 04:00:06;;;;;;;;;;;;;;;18.55;37.11;100857.44;4992064;28;1222;-53
2022/03/29 04:02:38;;;;;;;;;;;;;;;18.73;36.63;100853.19;4998110;28;1142;-55
2022/03/29 04:05:03;;;;;;;;;;;;;;;18.92;36.36;100847.03;5009086;28;1168;-55
2022/03/29 04:07:29;;;;;;;;;;;;;;;19.07;36.18;100846.03;4999825;28;2064;-53
2022/03/29 04:09:54;;;;;;;;;;;;;;;19.21;35.93;100851.72;4998768;28;1186;-56
2022/03/29 04:12:20;;;;;;;;;;;;;;;18.12;37.79;100848.84;4999376;28;1424;-55
2022/03/29 04:14:45;;;;;;;;;;;;;;;18.09;37.67;100866.75;4992671;28;1401;-56
2022/03/29 04:17:11;;;;;;;;;;;;;;;18.29;37.34;100859.50;4991924;28;1392;-57
2022/03/29 04:19:36;;;;;;;;;;;;;;;18.06;38.07;100858.22;4999546;28;819;-56
2022/03/29 04:22:02;;;;;;;;;;;;;;;18.04;37.87;100854.94;5007106;28;749;-57
2022/03/29 04:24:28;;;;;;;;;;;;;;;18.07;37.92;100851.63;4997981;28;874;-57
2022/03/29 04:26:53;;;;;;;;;;;;;;;18.08;38.15;100854.09;4998326;28;937;-56
2022/03/29 04:29:19;;;;;;;;;;;;;;;18.06;38.14;100861.81;5013486;28;1898;-56
2022/03/29 04:31:44;;;;;;;;;;;;;;;18.40;37.32;100858.34;5017122;28;787;-56
2022/03/29 04:34:10;;;;;;;;;;;;;;;18.77;36.78;100848.72;5017123;28;827;-56
2022/03/29 04:36:35;;;;;;;;;;;;;;;18.92;36.29;100845.06;5016685;28;844;-56
2022/03/29 04:39:01;;;;;;;;;;;;;;;19.11;36.24;100856.22;5004565;28;1009;-55
2022/03/29 04:41:26;;;;;;;;;;;;;;;19.35;35.72;100860.13;5016647;28;878;-56
2022/03/29 04:43:51;;;;;;;;;;;;;;;18.48;37.13;100856.91;5016903;28;745;-56
2022/03/29 04:46:17;;;;;;;;;;;;;;;17.88;38.31;100854.97;5016885;28;787;-55
2022/03/29 04:48:43;;;;;;;;;;;;;;;17.51;39.29;100852.59;5006376;28;1906;-54
2022/03/29 04:51:08;;;;;;;;;;;;;;;17.74;38.76;100853.91;4979224;28;1214;-55
2022/03/29 04:53:34;;;;;;;;;;;;;;;17.93;38.45;100845.91;4998639;28;1555;-55
2022/03/29 04:55:59;;;;;;;;;;;;;;;18.03;38.28;100840.34;4995081;28;850;-56
2022/03/29 04:58:25;;;;;;;;;;;;;;;18.42;37.28;100839.59;4997129;28;1413;-54
2022/03/29 05:00:50;;;;;;;;;;;;;;;18.83;36.52;100826.66;4996650;28;1329;-56
2022/03/29 05:03:16;;;;;;;;;;;;;;;19.00;36.26;100829.88;4992819;28;1436;-56
2022/03/29 05:05:42;;;;;;;;;;;;;;;19.14;35.83;100824.50;4995816;28;1258;-55
2022/03/29 05:08:08;;;;;;;;;;;;;;;18.20;37.53;100818.00;4997165;28;1894;-56
2022/03/29 05:10:33;;;;;;;;;;;;;;;17.75;38.70;100812.38;4993235;28;945;-54
2022/03/29 05:12:58;;;;;;;;;;;;;;;17.86;38.63;100804.09;5013371;28;735;-56
2022/03/29 05:15:24;;;;;;;;;;;;;;;18.01;38.13;100825.25;5010795;28;865;-58
2022/03/29 05:17:49;;;;;;;;;;;;;;;17.83;38.44;100812.91;5016711;28;735;-61
2022/03/29 05:20:15;;;;;;;;;;;;;;;17.78;38.51;100816.47;5013333;28;1317;-58
2022/03/29 05:22:44;;;;;;;;;;;;;;;18.07;38.23;100816.66;4991598;28;1579;-59
2022/03/29 05:25:09;;;;;;;;;;;;;;;18.48;37.46;100821.09;5000041;28;905;-57
2022/03/29 05:27:35;;;;;;;;;;;;;;;18.86;36.52;100823.31;4997141;28;1964;-59
2022/03/29 05:30:00;;;;;;;;;;;;;;;19.06;35.98;100822.38;5012664;28;831;-60
2022/03/29 05:32:25;;;;;;;;;;;;;;;19.38;35.57;100813.50;4999957;28;1337;-57
2022/03/29 05:34:51;;;;;;;;;;;;;;;18.89;36.35;100817.28;5003380;28;885;-59
2022/03/29 05:37:16;;;;;;;;;;;;;;;18.32;37.77;100803.06;4994758;28;1377;-59
2022/03/29 05:39:43;;;;;;;;;;;;;;;18.49;37.04;100806.25;4996489;28;793;-59
2022/03/29 05:42:09;;;;;;;;;;;;;;;18.49;37.10;100794.41;4994135;28;1275;-59
2022/03/29 05:44:35;;;;;;;;;;;;;;;18.46;37.28;100804.06;4992045;28;806;-59
2022/03/29 05:49:44;;;;;;;;;;;;;;;18.30;37.88;100800.59;5015838;28;1909;-60
2022/03/29 05:52:10;;;;;;;;;;;;;;;18.38;37.56;100791.72;5015840;28;976;-58
2022/03/29 05:54:35;;;;;;;;;;;;;;;18.34;37.37;100795.31;5000269;28;1279;-59
2022/03/29 05:57:01;;;;;;;;;;;;;;;18.40;37.52;100785.94;5006528;28;789;-59
2022/03/29 05:59:26;;;;;;;;;;;;;;;18.21;37.81;100794.03;4989611;28;1417;-60
2022/03/29 06:01:52;;;;;;;;;;;;;;;18.38;37.38;100797.22;4999236;28;1241;-57
2022/03/29 06:04:22;;;;;;;;;;;;;;;18.34;37.66;100803.59;5003037;28;1264;-59
2022/03/29 06:06:48;;;;;;;;;;;;;;;18.23;37.78;100795.41;5009480;28;826;-61
2022/03/29 06:09:14;;;;;;;;;;;;;;;18.30;37.49;100800.59;5012826;28;1905;-58
2022/03/29 06:11:39;;;;;;;;;;;;;;;18.39;37.39;100787.84;5000970;28;820;-60
2022/03/29 06:14:05;;;;;;;;;;;;;;;18.16;38.08;100777.53;4999461;28;1483;-60
2022/03/29 06:16:31;;;;;;;;;;;;;;;18.18;37.89;100789.91;4999907;28;759;-60
2022/03/29 06:18:56;;;;;;;;;;;;;;;18.19;37.81;100782.47;4985469;28;1000;-61
2022/03/29 06:21:24;;;;;;;;;;;;;;;18.17;38.05;100779.19;4999677;28;1070;-62
2022/03/29 06:23:49;;;;;;;;;;;;;;;18.20;37.95;100775.88;5000601;28;901;-58
2022/03/29 06:26:14;;;;;;;;;;;;;;;18.23;37.68;100780.81;4999169;28;1093;-58
2022/03/29 06:28:40;;;;;;;;;;;;;;;18.19;38.03;100774.22;5019529;28;1902;-62
2022/03/29 06:31:07;;;;;;;;;;;;;;;18.09;38.12;100788.84;5017089;28;823;-64
2022/03/29 06:33:35;;;;;;;;;;;;;;;18.17;37.83;100777.25;5000612;28;1041;-63
2022/03/29 06:36:00;;;;;;;;;;;;;;;18.31;37.95;100785.72;5000675;28;864;-61
2022/03/29 06:38:26;;;;;;;;;;;;;;;18.24;38.07;100782.44;5000538;28;1309;-60
2022/03/29 06:40:53;;;;;;;;;;;;;;;18.18;38.03;100787.16;5000194;28;781;-66
2022/03/29 06:43:18;;;;;;;;;;;;;;;18.21;37.95;100785.78;5000561;28;763;-60
2022/03/29 06:45:44;;;;;;;;;;;;;;;18.17;38.30;100784.69;5011443;28;834;-63
2022/03/29 06:48:09;;;;;;;;;;;;;;;18.18;38.01;100791.88;5005042;28;1898;-61
2022/03/29 06:50:35;;;;;;;;;;;;;;;18.42;37.57;100787.28;5006636;28;1209;-62
2022/03/29 06:53:01;;;;;;;;;;;;;;;18.64;37.11;100780.53;5010554;28;1189;-64
2022/03/29 06:55:26;;;;;;;;;;;;;;;18.95;36.73;100785.81;4999674;28;1208;-64
2022/03/29 06:57:52;;;;;;;;;;;;;;;19.09;36.26;100781.25;4999228;28;1054;-60
2022/03/29 07:00:17;;;;;;;;;;;;;;;19.34;35.68;100786.81;4999625;28;1182;-64
2022/03/29 07:02:47;;;;;;;;;;;;;;;19.21;35.90;100782.81;5005329;28;1258;-59
2022/03/29 07:05:14;;;;;;;;;;;;;;;18.23;37.88;100780.81;4996209;28;1006;-61
2022/03/29 07:07:39;;;;;;;;;;;;;;;17.67;38.96;100771.72;5005845;28;1910;-60
2022/03/29 07:13:06;;;;;;;;;;;;;;;17.98;38.44;100770.75;4937847;29;1053;-63
2022/03/29 07:15:31;;;;;;;;;;;;;;;18.37;37.58;100768.06;4980735;28;1107;-64
2022/03/29 07:17:57;;;;;;;;;;;;;;;18.79;37.08;100763.88;4998697;28;720;-63
2022/03/29 07:20:22;;;;;;;;;;;;;;;19.12;36.16;100755.88;4998885;28;811;-61
2022/03/29 07:22:48;;;;;;;;;;;;;;;19.24;35.90;100746.41;5004247;28;846;-61
2022/03/29 07:25:17;;;;;;;;;;;;;;;19.36;35.67;100745.97;5004682;28;937;-60
2022/03/29 07:27:42;;;;;;;;;;;;;;;18.21;37.89;100744.50;4999436;28;1910;-59
2022/03/29 07:30:10;;;;;;;;;;;;;;;18.05;38.26;100741.84;4999397;28;834;-59
2022/03/29 07:32:42;;;;;;;;;;;;;;;18.11;38.10;100743.44;4999152;28;755;-60
2022/03/29 07:35:07;;;;;;;;;;;;;;;18.19;37.76;100738.44;4992815;28;881;-60
2022/03/29 07:37:33;;;;;;;;;;;;;;;18.00;38.11;100733.59;4999459;28;1239;-60
2022/03/29 07:39:58;;;;;;;;;;;;;;;17.98;37.98;100733.09;4999523;28;913;-60
2022/03/29 07:42:25;;;;;;;;;;;;;;;17.88;38.58;100730.34;4999358;28;821;-59
2022/03/29 07:44:50;;;;;;;;;;;;;;;18.00;38.39;100719.84;4999251;28;851;-61
2022/03/29 07:47:17;;;;;;;;;;;;;;;17.99;38.50;100718.19;4998945;28;889;-61
2022/03/29 07:49:43;;;;;;;;;;;;;;;18.15;38.49;100712.63;4997865;28;1973;-62
2022/03/29 07:52:09;;;;;;;;;;;;;;;18.60;37.45;100705.09;4999204;28;816;-62
2022/03/29 07:54:34;;;;;;;;;;;;;;;18.89;36.97;100702.38;5002366;28;858;-61
2022/03/29 07:56:59;;;;;;;;;;;;;;;19.18;36.13;100704.28;5018249;28;858;-61
2022/03/29 07:59:25;;;;;;;;;;;;;;;19.24;36.33;100699.53;5018197;28;841;-60
2022/03/29 08:01:50;;;;;;;;;;;;;;;19.27;35.80;100712.72;5012461;28;802;-65
2022/03/29 08:04:16;;;;;;;;;;;;;;;18.09;38.34;100698.91;5010947;28;1061;-64
2022/03/29 08:06:41;;;;;;;;;;;;;;;17.92;38.41;100698.44;4999113;28;775;-64
2022/03/29 08:09:07;;;;;;;;;;;;;;;17.79;39.42;100697.13;4993763;28;1903;-64
2022/03/29 08:11:34;;;;;;;;;;;;;;;18.04;38.92;100696.16;4998894;28;841;-65
2022/03/29 08:13:59;;;;;;;;;;;;;;;18.32;38.21;100693.78;5006640;28;778;-65
2022/03/29 08:16:27;;;;;;;;;;;;;;;18.28;38.21;100689.94;5017315;28;763;-65
2022/03/29 08:18:53;;;;;;;;;;;;;;;18.52;37.79;100692.75;5009369;28;1545;-65
2022/03/29 08:24:02;;;;;;;;;;;;;;;18.45;37.93;100682.13;5014818;28;904;-63
2022/03/29 08:26:28;;;;;;;;;;;;;;;18.40;37.80;100682.16;5006452;28;1207;-64
2022/03/29 08:28:53;;;;;;;;;;;;;;;18.47;37.81;100679.88;4998323;28;1972;-61
2022/03/29 08:31:19;;;;;;;;;;;;;;;18.39;37.84;100677.75;4997900;28;912;-65
2022/03/29 08:33:44;;;;;;;;;;;;;;;18.49;37.74;100676.03;4998334;28;736;-62
2022/03/29 08:36:10;;;;;;;;;;;;;;;18.49;37.79;100656.75;4998258;28;1102;-66
2022/03/29 08:38:35;;;;;;;;;;;;;;;18.50;37.92;100650.13;4997221;28;1524;-67
2022/03/29 08:41:01;;;;;;;;;;;;;;;18.39;37.76;100650.22;5012340;28;821;-62
2022/03/29 08:43:27;;;;;;;;;;;;;;;18.53;37.63;100646.78;5016726;28;818;-62
2022/03/29 08:45:53;;;;;;;;;;;;;;;18.31;37.88;100634.31;5016752;28;920;-62
2022/03/29 08:48:21;;;;;;;;;;;;;;;18.31;37.45;100631.56;4980922;28;1895;-64
2022/03/29 08:50:46;;;;;;;;;;;;;;;18.12;37.84;100629.53;4997929;28;1068;-63
2022/03/29 08:53:13;;;;;;;;;;;;;;;18.03;37.69;100628.47;4984458;28;859;-65
2022/03/29 08:55:42;;;;;;;;;;;;;;;17.78;37.28;100622.03;5010626;28;874;-66
2022/03/29 08:58:08;;;;;;;;;;;;;;;17.71;38.17;100629.81;5016347;28;842;-67
2022/03/29 09:00:35;;;;;;;;;;;;;;;17.88;39.27;100617.56;5016544;28;767;-65
2022/03/29 09:03:00;;;;;;;;;;;;;;;18.56;37.77;100613.16;5016659;28;817;-64
2022/03/29 09:05:32;;;;;;;;;;;;;;;18.92;37.29;100623.84;4999900;28;1168;-63
2022/03/29 09:07:58;;;;;;;;;;;;;;;19.29;36.40;100622.28;4991825;28;1973;-62
2022/03/29 09:10:39;;;;;;;;;;;;;;;19.37;36.02;100610.59;5010514;28;981;-63
2022/03/29 09:13:15;;;;;;;;;;;;;;;18.49;37.65;100615.44;4998474;28;1436;-63
2022/03/29 09:15:40;;;;;;;;;;;;;;;17.99;38.60;100610.91;4999292;28;904;-62
2022/03/29 09:18:09;;;;;;;;;;;;;;;17.84;38.51;100613.75;5011535;28;766;-61
2022/03/29 09:20:34;;;;;;;;;;;;;;;17.89;37.95;100609.06;5015893;28;831;-65
2022/03/29 09:23:00;;;;;;;;;;;;;;;17.89;37.41;100598.03;5015933;28;758;-62
2022/03/29 09:25:35;;;;;;;;;;;;;;;17.84;37.38;100602.72;5009006;28;1008;-62
2022/03/29 09:28:01;;;;;;;;;;;;;;;17.72;39.00;100612.16;5009499;28;1915;-60
2022/03/29 09:30:27;;;;;;;;;;;;;;;18.07;38.75;100596.53;4995663;28;750;-62
2022/03/29 09:32:57;;;;;;;;;;;;;;;18.55;37.74;100586.72;4995373;28;818;-64
2022/03/29 09:35:22;;;;;;;;;;;;;;;18.93;37.16;100597.94;4995280;28;759;-60
2022/03/29 09:37:48;;;;;;;;;;;;;;;19.20;36.36;100585.47;4996268;28;1137;-61
2022/03/29 09:40:14;;;;;;;;;;;;;;;19.25;36.28;100585.38;4996153;28;842;-63
2022/03/29 09:43:00;;;;;;;;;;;;;;;18.89;36.71;100585.84;4982309;28;1232;-57
2022/03/29 09:45:57;;;;;;;;;;;;;;;18.55;37.09;100582.06;4996393;28;807;-59
2022/03/29 09:48:24;;;;;;;;;;;;;;;18.26;37.56;100571.06;4953426;28;1980;-61
2022/03/29 09:50:56;;;;;;;;;;;;;;;18.09;37.11;100576.97;4996250;28;904;-62
2022/03/29 09:53:37;;;;;;;;;;;;;;;18.05;37.07;100585.00;5011905;28;782;-62
2022/03/29 09:56:03;;;;;;;;;;;;;;;17.69;37.51;100571.50;5013008;28;857;-61
2022/03/29 09:58:28;;;;;;;;;;;;;;;17.82;37.62;100570.03;5015181;28;834;-61
2022/03/29 10:00:55;;;;;;;;;;;;;;;18.25;38.46;100578.50;5015217;28;834;-63
2022/03/29 10:03:20;;;;;;;;;;;;;;;18.89;37.21;100577.59;4997620;28;790;-62
2022/03/29 10:05:46;;;;;;;;;;;;;;;19.23;36.51;100568.34;4981631;28;1149;-63
2022/03/29 10:11:01;;;;;;;;;;;;;;;18.79;37.43;100557.28;4981463;28;858;-62
2022/03/29 10:13:28;;;;;;;;;;;;;;;18.55;37.85;100559.19;4996997;28;927;-65
2022/03/29 10:15:54;;;;;;;;;;;;;;;17.50;40.00;100556.78;4979060;28;959;-66
2022/03/29 10:18:21;;;;;;;;;;;;;;;18.06;39.05;100553.66;4996270;28;862;-64
2022/03/29 10:20:47;;;;;;;;;;;;;;;18.27;38.26;100551.50;5002190;28;1501;-66
2022/03/29 10:23:18;;;;;;;;;;;;;;;18.32;38.01;100542.38;5013886;28;825;-63
2022/03/29 10:25:43;;;;;;;;;;;;;;;18.47;37.91;100536.69;5007037;28;1180;-63
2022/03/29 10:28:09;;;;;;;;;;;;;;;18.50;37.94;100537.25;4980944;28;1898;-59
2022/03/29 10:30:39;;;;;;;;;;;;;;;18.51;37.60;100536.13;4992980;28;1062;-59
2022/03/29 10:33:16;;;;;;;;;;;;;;;18.58;37.49;100526.41;4995491;28;754;-58
2022/03/29 10:36:00;;;;;;;;;;;;;;;18.44;37.64;100522.72;4990168;28;794;-59
2022/03/29 10:38:47;;;;;;;;;;;;;;;18.58;37.57;100512.63;4998020;28;1044;-59
2022/03/29 10:41:28;;;;;;;;;;;;;;;18.62;37.53;100518.34;5013350;28;1177;-58
2022/03/29 10:43:53;;;;;;;;;;;;;;;18.73;37.22;100511.63;5015170;28;901;-60
2022/03/29 10:46:25;;;;;;;;;;;;;;;18.74;37.09;100505.00;4999059;28;1136;-58
2022/03/29 10:49:09;;;;;;;;;;;;;;;18.75;37.47;100498.38;4997637;28;1976;-57
2022/03/29 10:51:34;;;;;;;;;;;;;;;18.63;37.66;100498.81;5001510;28;1445;-62
2022/03/29 10:54:20;;;;;;;;;;;;;;;18.71;37.60;100494.56;5011709;28;841;-61
2022/03/29 10:56:57;;;;;;;;;;;;;;;18.73;37.34;100488.75;4998287;28;1645;-58
2022/03/29 10:59:23;;;;;;;;;;;;;;;18.63;37.54;100486.97;4997925;28;1374;-58
2022/03/29 11:02:24;;;;;;;;;;;;;;;18.69;37.64;100482.19;4998786;28;826;-58
2022/03/29 11:05:06;;;;;;;;;;;;;;;18.63;37.73;100489.72;4921061;29;1232;-57
2022/03/29 11:07:50;;;;;;;;;;;;;;;18.62;37.46;100469.63;4990973;28;964;-57
2022/03/29 11:10:16;;;;;;;;;;;;;;;18.90;37.00;100474.53;4999151;28;989;-58
2022/03/29 11:12:43;;;;;;;;;;;;;;;18.82;37.32;100467.72;4999048;28;923;-59
2022/03/29 11:15:23;;;;;;;;;;;;;;;18.78;37.24;100456.47;4996981;28;1298;-57
2022/03/29 11:17:49;;;;;;;;;;;;;;;18.83;37.05;100449.25;4999607;28;743;-58
2022/03/29 11:20:29;;;;;;;;;;;;;;;18.79;37.13;100438.81;4999003;28;924;-58
2022/03/29 11:22:56;;;;;;;;;;;;;;;18.81;37.43;100452.31;4996041;28;1109;-57
2022/03/29 11:25:22;;;;;;;;;;;;;;;18.86;37.13;100443.13;4997802;28;1224;-59
2022/03/29 11:27:48;;;;;;;;;;;;;;;18.76;37.28;100441.34;4980255;28;1906;-58
2022/03/29 11:30:14;;;;;;;;;;;;;;;18.63;37.73;100437.38;4998685;28;1415;-59
2022/03/29 11:32:40;;;;;;;;;;;;;;;18.80;37.22;100423.94;4999041;28;746;-59
2022/03/29 11:35:07;;;;;;;;;;;;;;;18.90;36.98;100423.00;4997745;28;1359;-58
2022/03/29 11:37:33;;;;;;;;;;;;;;;18.82;37.31;100431.91;5000585;28;1061;-60
2022/03/29 11:40:00;;;;;;;;;;;;;;;19.00;36.79;100410.19;5005230;28;987;-59
2022/03/29 11:43:05;;;;;;;;;;;;;;;18.89;37.08;100407.59;4998264;28;727;-60
2022/03/29 11:45:35;;;;;;;;;;;;;;;18.91;36.88;100399.84;4925977;29;1228;-59
2022/03/29 11:48:04;;;;;;;;;;;;;;;18.86;37.30;100399.06;5000518;28;1910;-58
2022/03/29 11:50:44;;;;;;;;;;;;;;;18.88;37.22;100400.44;4998456;28;847;-59
2022/03/29 11:53:16;;;;;;;;;;;;;;;18.96;36.94;100393.44;4998651;28;803;-59
2022/03/29 11:55:41;;;;;;;;;;;;;;;18.78;37.29;100392.31;5014137;28;1020;-58
2022/03/29 11:58:42;;;;;;;;;;;;;;;18.71;37.35;100392.66;5016345;28;826;-58
2022/03/29 12:01:07;;;;;;;;;;;;;;;18.77;37.40;100396.97;4956491;29;1147;-59
2022/03/29 12:03:33;;;;;;;;;;;;;;;18.65;37.80;100396.63;4998513;28;912;-61
2022/03/29 12:06:18;;;;;;;;;;;;;;;18.55;37.61;100394.00;5016663;28;897;-61
2022/03/29 12:08:52;;;;;;;;;;;;;;;18.62;37.79;100399.94;5014394;28;1934;-61
2022/03/29 12:11:39;;;;;;;;;;;;;;;18.54;37.61;100395.13;5013716;28;787;-61
2022/03/29 12:14:05;;;;;;;;;;;;;;;18.41;38.12;100382.88;5016923;28;944;-62
2022/03/29 12:16:31;;;;;;;;;;;;;;;18.47;38.02;100385.28;5008146;28;843;-60
2022/03/29 12:18:57;;;;;;;;;;;;;;;18.55;37.65;100377.47;5016732;28;774;-60
2022/03/29 12:21:22;;;;;;;;;;;;;;;18.67;37.42;100369.59;4998749;28;875;-62
2022/03/29 12:23:48;;;;;;;;;;;;;;;18.57;37.65;100369.75;5014111;28;855;-57
2022/03/29 12:26:14;;;;;;;;;;;;;;;18.64;37.49;100371.00;4981457;28;919;-56
2022/03/29 12:28:40;;;;;;;;;;;;;;;18.57;37.61;100364.25;5001937;28;1914;-60
2022/03/29 12:31:10;;;;;;;;;;;;;;;18.62;37.57;100356.72;5016445;28;777;-60
2022/03/29 12:33:35;;;;;;;;;;;;;;;18.46;38.08;100358.84;4999030;28;891;-62
2022/03/29 12:36:01;;;;;;;;;;;;;;;18.59;37.67;100350.97;4998967;28;808;-60
2022/03/29 12:38:27;;;;;;;;;;;;;;;18.53;37.83;100352.19;5015511;28;997;-59
2022/03/29 12:40:53;;;;;;;;;;;;;;;18.53;37.80;100347.47;5000623;28;743;-58
2022/03/29 12:43:23;;;;;;;;;;;;;;;18.39;38.03;100350.16;5015998;28;796;-61
2022/03/29 12:45:49;;;;;;;;;;;;;;;18.63;37.64;100341.84;5016034;28;803;-58
2022/03/29 12:48:14;;;;;;;;;;;;;;;18.58;38.00;100341.91;5016049;28;1977;-62
2022/03/29 12:50:40;;;;;;;;;;;;;;;18.55;38.42;100344.44;4998155;28;1223;-62
2022/03/29 12:53:08;;;;;;;;;;;;;;;18.56;38.17;100346.06;5014234;28;911;-59
2022/03/29 12:55:34;;;;;;;;;;;;;;;18.62;38.00;100350.38;4995589;28;873;-63
2022/03/29 12:58:03;;;;;;;;;;;;;;;18.58;38.47;100341.06;4996248;28;855;-59
2022/03/29 13:00:35;;;;;;;;;;;;;;;18.59;38.12;100339.97;4999945;28;795;-60
2022/03/29 13:03:05;;;;;;;;;;;;;;;18.36;38.76;100336.19;4992196;28;1500;-64
2022/03/29 13:05:33;;;;;;;;;;;;;;;18.34;39.24;100333.72;4993632;28;1251;-63
2022/03/29 13:07:59;;;;;;;;;;;;;;;18.55;38.64;100328.75;4995690;28;1910;-61
2022/03/29 13:10:33;;;;;;;;;;;;;;;18.59;38.73;100328.94;5002066;28;1191;-63